Time;durP1;ratioP1;P1;durP2;ratioP2;P2;SDS_P1;SDS_P2;PMS_P1;PMS_P2;Temp;Humidity;BMP_temperature;BMP_pressure;BME280_temperature;BME280_humidity;BME280_pressure;Samples;Min_cycle;Max_cycle;Signal;HPM_P1;HPM_P2
2023/07/02 00:02:22;;;;;;;4.60;4.30;;;16.60;99.90;;;;;;4969145;28;20463;-63
2023/07/02 00:04:49;;;;;;;5.93;5.23;;;16.60;99.90;;;;;;4969098;28;20581;-63
2023/07/02 00:07:16;;;;;;;5.40;4.93;;;16.60;99.90;;;;;;4970819;28;20795;-63
2023/07/02 00:09:43;;;;;;;5.50;5.00;;;16.60;99.90;;;;;;4970518;28;20459;-63
2023/07/02 00:12:10;;;;;;;4.97;4.67;;;16.60;99.90;;;;;;4969347;28;20992;-63
2023/07/02 00:14:38;;;;;;;4.90;4.50;;;16.60;99.90;;;;;;4970474;28;20588;-63
2023/07/02 00:17:06;;;;;;;5.03;4.60;;;16.60;99.90;;;;;;4984555;28;20463;-64
2023/07/02 00:19:33;;;;;;;4.97;4.57;;;16.70;99.90;;;;;;4989220;28;20492;-63
2023/07/02 00:22:00;;;;;;;4.70;4.33;;;16.60;99.90;;;;;;4977848;28;20921;-64
2023/07/02 00:24:29;;;;;;;5.00;4.60;;;16.70;99.90;;;;;;4970019;28;20521;-65
2023/07/02 00:26:56;;;;;;;5.10;4.17;;;16.60;99.90;;;;;;4972281;28;20529;-64
2023/07/02 00:29:23;;;;;;;4.87;4.47;;;16.50;99.90;;;;;;4986090;28;21027;-63
2023/07/02 00:31:51;;;;;;;4.80;4.50;;;16.50;99.90;;;;;;4973109;28;21006;-64
2023/07/02 00:34:19;;;;;;;5.70;5.30;;;16.50;99.90;;;;;;4986225;28;20499;-64
2023/07/02 00:36:46;;;;;;;5.13;4.73;;;16.40;99.90;;;;;;4986911;28;20462;-64
2023/07/02 00:39:13;;;;;;;4.70;4.40;;;16.40;99.90;;;;;;4974415;28;20556;-64
2023/07/02 00:41:42;;;;;;;5.40;4.67;;;16.40;99.90;;;;;;4977318;28;20981;-65
2023/07/02 00:44:10;;;;;;;4.60;4.23;;;16.40;99.90;;;;;;4974931;28;20550;-64
2023/07/02 00:46:37;;;;;;;5.40;4.90;;;16.40;99.90;;;;;;4974814;28;20478;-63
2023/07/02 00:49:06;;;;;;;4.40;3.80;;;16.40;99.90;;;;;;4973255;28;20469;-64
2023/07/02 00:51:33;;;;;;;4.80;4.50;;;16.30;99.90;;;;;;4972686;28;20871;-64
2023/07/02 00:54:00;;;;;;;5.23;4.83;;;16.30;99.90;;;;;;4972416;28;20580;-64
2023/07/02 00:56:28;;;;;;;4.60;4.30;;;16.30;99.90;;;;;;4975809;28;20474;-64
2023/07/02 00:58:58;;;;;;;4.33;4.03;;;16.30;99.90;;;;;;4973855;28;20486;-64
2023/07/02 01:01:27;;;;;;;5.43;5.00;;;16.30;99.90;;;;;;4978547;28;20473;-63
2023/07/02 01:03:57;;;;;;;4.57;4.27;;;16.30;99.90;;;;;;4977672;28;20496;-64
2023/07/02 01:06:26;;;;;;;4.87;3.90;;;16.30;99.90;;;;;;4975437;28;20469;-64
2023/07/02 01:08:55;;;;;;;5.03;4.53;;;16.40;99.90;;;;;;4986561;28;20490;-63
2023/07/02 01:11:26;;;;;;;4.60;4.30;;;16.30;99.90;;;;;;4973157;28;20458;-64
2023/07/02 01:14:01;;;;;;;4.53;4.17;;;16.30;99.90;;;;;;4971780;28;20455;-63
2023/07/02 01:16:30;;;;;;;4.30;4.00;;;16.30;99.90;;;;;;4975025;28;20851;-64
2023/07/02 01:18:58;;;;;;;4.03;3.73;;;16.30;99.90;;;;;;4978219;28;20458;-64
2023/07/02 01:21:27;;;;;;;5.23;4.70;;;16.30;99.90;;;;;;4973001;28;20459;-65
2023/07/02 01:23:54;;;;;;;4.83;4.33;;;16.30;99.90;;;;;;4974162;28;21068;-63
2023/07/02 01:26:22;;;;;;;4.60;4.30;;;16.30;99.90;;;;;;4973507;28;20512;-63
2023/07/02 01:28:49;;;;;;;5.30;4.80;;;16.30;99.90;;;;;;4972979;28;20489;-64
2023/07/02 01:31:16;;;;;;;5.30;4.90;;;16.30;99.90;;;;;;4972296;28;20466;-63
2023/07/02 01:33:43;;;;;;;5.07;4.23;;;16.30;99.90;;;;;;4970400;28;20971;-64
2023/07/02 01:36:10;;;;;;;4.57;4.27;;;16.20;99.90;;;;;;4972848;28;20472;-63
2023/07/02 01:38:39;;;;;;;4.47;4.00;;;16.20;99.90;;;;;;4973236;28;20463;-64
2023/07/02 01:41:06;;;;;;;4.80;4.27;;;16.20;99.90;;;;;;4982385;28;20467;-64
2023/07/02 01:43:32;;;;;;;4.93;4.57;;;16.10;99.90;;;;;;4975076;28;20519;-63
2023/07/02 01:46:01;;;;;;;5.00;4.60;;;16.10;99.90;;;;;;4977650;28;20521;-64
2023/07/02 01:48:28;;;;;;;5.10;4.40;;;16.20;99.90;;;;;;4972803;28;20542;-63
2023/07/02 01:50:55;;;;;;;5.20;4.70;;;16.10;99.90;;;;;;4978241;28;20517;-63
2023/07/02 01:53:22;;;;;;;7.23;4.17;;;16.20;99.90;;;;;;4972227;28;20462;-62
2023/07/02 01:55:51;;;;;;;4.60;4.20;;;16.20;99.90;;;;;;4972367;28;21134;-63
2023/07/02 01:58:17;;;;;;;4.77;4.47;;;16.20;99.90;;;;;;4973189;28;20455;-63
2023/07/02 02:00:45;;;;;;;6.23;4.40;;;16.20;99.90;;;;;;4973427;28;20461;-63
2023/07/02 02:03:12;;;;;;;4.73;4.23;;;16.20;99.90;;;;;;4972435;28;20455;-64
2023/07/02 02:05:39;;;;;;;4.30;3.90;;;16.20;99.90;;;;;;4971488;28;20561;-64
2023/07/02 02:08:06;;;;;;;4.80;3.97;;;16.20;99.90;;;;;;4972974;28;20495;-63
2023/07/02 02:10:33;;;;;;;4.03;3.73;;;16.20;99.90;;;;;;4972047;28;20464;-64
2023/07/02 02:13:01;;;;;;;4.80;4.40;;;16.20;99.90;;;;;;4972681;28;20499;-64
2023/07/02 02:15:29;;;;;;;4.30;3.90;;;16.20;99.90;;;;;;4980969;28;20508;-64
2023/07/02 02:17:56;;;;;;;5.50;4.20;;;16.20;99.90;;;;;;4974540;28;20455;-63
2023/07/02 02:20:23;;;;;;;5.00;4.57;;;16.20;99.90;;;;;;4973917;28;20498;-64
2023/07/02 02:22:50;;;;;;;4.53;4.13;;;16.20;99.90;;;;;;4971502;28;20861;-64
2023/07/02 02:25:17;;;;;;;4.60;3.90;;;16.20;99.90;;;;;;4971426;28;20704;-64
2023/07/02 02:27:44;;;;;;;4.37;3.97;;;16.30;99.90;;;;;;4973638;28;20463;-64
2023/07/02 02:30:13;;;;;;;4.07;3.70;;;16.30;99.90;;;;;;4974615;28;20538;-64
2023/07/02 02:32:40;;;;;;;4.60;4.20;;;16.30;99.90;;;;;;4971436;28;20829;-64
2023/07/02 02:35:08;;;;;;;4.63;4.23;;;16.30;99.90;;;;;;4990587;28;20466;-64
2023/07/02 02:37:39;;;;;;;6.53;4.33;;;16.30;99.90;;;;;;4980549;28;20919;-63
2023/07/02 02:40:08;;;;;;;3.97;3.67;;;16.30;99.90;;;;;;4971007;28;20508;-63
2023/07/02 02:42:36;;;;;;;3.70;3.40;;;16.30;99.90;;;;;;4972134;28;20474;-62
2023/07/02 02:45:03;;;;;;;4.97;4.60;;;16.30;99.90;;;;;;4974755;28;20495;-63
2023/07/02 02:47:31;;;;;;;4.20;3.80;;;16.30;99.90;;;;;;4973555;28;20482;-63
2023/07/02 02:49:59;;;;;;;4.50;4.20;;;16.30;99.90;;;;;;4974144;28;20455;-64
2023/07/02 02:52:26;;;;;;;4.47;4.07;;;16.40;99.90;;;;;;4972680;28;20462;-63
2023/07/02 02:54:53;;;;;;;5.03;4.40;;;16.40;99.90;;;;;;4971133;28;20474;-63
2023/07/02 02:57:20;;;;;;;4.30;3.97;;;16.40;99.90;;;;;;4977003;28;20462;-63
2023/07/02 02:59:47;;;;;;;4.87;4.20;;;16.40;99.90;;;;;;4969108;28;20461;-63
2023/07/02 03:02:14;;;;;;;4.57;4.17;;;16.40;99.90;;;;;;4970214;28;20554;-63
2023/07/02 03:04:44;;;;;;;4.90;4.40;;;16.40;99.90;;;;;;4973107;28;20903;-63
2023/07/02 03:07:11;;;;;;;4.57;4.17;;;16.40;99.90;;;;;;4971265;28;20457;-63
2023/07/02 03:09:38;;;;;;;5.10;4.40;;;16.30;99.90;;;;;;4970824;28;20525;-63
2023/07/02 03:12:06;;;;;;;4.90;4.50;;;16.30;99.90;;;;;;4968946;28;20463;-63
2023/07/02 03:14:33;;;;;;;5.97;5.30;;;16.30;99.90;;;;;;4970971;28;20522;-63
2023/07/02 03:16:59;;;;;;;6.47;5.97;;;16.20;99.90;;;;;;4972125;28;20454;-63
2023/07/02 03:19:27;;;;;;;6.30;5.70;;;16.00;99.90;;;;;;4971689;28;20446;-63
2023/07/02 03:21:55;;;;;;;6.67;6.07;;;15.90;99.90;;;;;;4970621;28;20545;-63
2023/07/02 03:24:22;;;;;;;6.57;5.67;;;15.90;99.90;;;;;;4971063;28;20498;-63
2023/07/02 03:26:50;;;;;;;6.37;5.83;;;15.90;99.90;;;;;;4973563;28;20471;-64
2023/07/02 03:29:19;;;;;;;6.23;5.63;;;15.90;99.90;;;;;;4970870;28;20537;-64
2023/07/02 03:31:46;;;;;;;6.37;5.53;;;15.90;99.90;;;;;;4970225;28;20462;-63
2023/07/02 03:34:13;;;;;;;5.17;4.63;;;15.80;99.90;;;;;;4970826;28;20497;-63
2023/07/02 03:36:40;;;;;;;7.37;5.93;;;15.70;99.90;;;;;;4978996;28;20553;-63
2023/07/02 03:39:09;;;;;;;6.90;5.33;;;15.70;99.90;;;;;;4973615;28;20455;-63
2023/07/02 03:41:36;;;;;;;8.80;5.20;;;15.70;99.90;;;;;;4970799;28;20981;-63
2023/07/02 03:44:03;;;;;;;6.60;5.37;;;15.70;99.90;;;;;;4970550;28;20597;-63
2023/07/02 03:46:30;;;;;;;5.73;5.33;;;15.70;99.90;;;;;;4971374;28;20979;-63
2023/07/02 03:48:58;;;;;;;5.63;5.13;;;15.60;99.90;;;;;;4969668;28;20461;-63
2023/07/02 03:51:25;;;;;;;7.07;4.80;;;15.60;99.90;;;;;;4969839;28;20455;-63
2023/07/02 03:53:52;;;;;;;6.70;5.70;;;15.60;99.90;;;;;;4970455;28;20455;-64
2023/07/02 03:56:20;;;;;;;7.63;5.73;;;15.60;99.90;;;;;;4970946;28;20550;-63
2023/07/02 03:58:47;;;;;;;7.00;6.30;;;15.60;99.90;;;;;;4970113;28;22387;-63
2023/07/02 04:01:14;;;;;;;7.90;6.13;;;15.60;99.90;;;;;;4970155;28;20967;-63
2023/07/02 04:03:48;;;;;;;6.60;5.90;;;15.60;99.90;;;;;;4969966;28;20462;-64
2023/07/02 04:06:15;;;;;;;8.23;7.17;;;15.60;99.90;;;;;;4975312;28;20585;-63
2023/07/02 04:08:42;;;;;;;9.30;6.50;;;15.60;99.90;;;;;;4970659;28;20826;-63
2023/07/02 04:11:10;;;;;;;10.43;6.60;;;15.60;99.90;;;;;;4971671;28;20462;-63
2023/07/02 04:13:39;;;;;;;7.73;6.97;;;15.60;99.90;;;;;;4972101;28;20461;-63
2023/07/02 04:16:06;;;;;;;7.00;6.30;;;15.50;99.90;;;;;;4971058;28;20478;-64
2023/07/02 04:18:34;;;;;;;7.40;6.63;;;15.50;99.90;;;;;;4971649;28;20488;-64
2023/07/02 04:21:02;;;;;;;7.93;6.77;;;15.50;99.90;;;;;;4972870;28;20578;-64
2023/07/02 04:23:29;;;;;;;8.60;6.33;;;15.40;99.90;;;;;;4969946;28;20466;-63
2023/07/02 04:25:56;;;;;;;9.17;6.63;;;15.40;99.90;;;;;;4970166;28;20573;-64
2023/07/02 04:28:23;;;;;;;13.13;7.43;;;15.40;99.90;;;;;;4971278;28;20459;-64
2023/07/02 04:30:52;;;;;;;8.60;7.50;;;15.40;99.90;;;;;;4969433;28;21009;-64
2023/07/02 04:33:20;;;;;;;8.73;6.90;;;15.50;99.90;;;;;;4970209;28;20517;-64
2023/07/02 04:35:47;;;;;;;8.70;6.60;;;15.50;99.90;;;;;;4974913;28;20884;-64
2023/07/02 04:38:14;;;;;;;8.57;7.20;;;15.50;99.90;;;;;;4970231;28;20459;-64
2023/07/02 04:40:44;;;;;;;9.70;6.57;;;15.60;99.90;;;;;;4969887;28;20578;-63
2023/07/02 04:43:12;;;;;;;7.20;6.13;;;15.50;99.90;;;;;;4969869;28;21056;-63
2023/07/02 04:45:39;;;;;;;6.40;5.80;;;15.50;99.90;;;;;;4971172;28;21110;-63
2023/07/02 04:48:08;;;;;;;7.47;6.10;;;15.50;99.90;;;;;;4970495;28;20843;-63
2023/07/02 04:50:35;;;;;;;7.77;5.87;;;15.50;99.90;;;;;;4970866;28;20476;-63
2023/07/02 04:53:02;;;;;;;6.50;5.87;;;15.50;99.90;;;;;;4971186;28;20818;-64
2023/07/02 04:55:29;;;;;;;9.63;5.50;;;15.50;99.90;;;;;;4973079;28;20567;-64
2023/07/02 04:57:56;;;;;;;7.27;5.23;;;15.50;99.90;;;;;;4970292;28;20463;-64
2023/07/02 05:00:23;;;;;;;7.30;5.33;;;15.50;99.90;;;;;;4972355;28;20454;-64
2023/07/02 05:02:50;;;;;;;9.17;5.63;;;15.50;99.90;;;;;;4969704;28;20558;-64
2023/07/02 05:05:19;;;;;;;7.70;5.30;;;15.60;99.90;;;;;;4970327;28;20499;-64
2023/07/02 05:07:46;;;;;;;6.03;5.40;;;15.70;99.90;;;;;;4970241;28;20487;-64
2023/07/02 05:10:14;;;;;;;5.23;4.73;;;15.80;99.90;;;;;;4969681;28;20466;-64
2023/07/02 05:12:41;;;;;;;8.83;5.17;;;15.80;99.90;;;;;;4967909;28;20581;-65
2023/07/02 05:15:09;;;;;;;5.20;4.70;;;15.90;99.90;;;;;;4970049;28;21632;-64
2023/07/02 05:17:36;;;;;;;5.33;4.83;;;15.90;99.90;;;;;;4974222;28;20998;-64
2023/07/02 05:20:04;;;;;;;7.17;4.80;;;16.00;99.90;;;;;;4976550;28;20506;-64
2023/07/02 05:22:33;;;;;;;6.60;5.00;;;16.00;99.90;;;;;;4977334;28;20457;-64
2023/07/02 05:25:00;;;;;;;5.17;4.67;;;16.00;99.90;;;;;;4973961;28;20584;-62
2023/07/02 05:27:27;;;;;;;5.60;4.90;;;16.10;99.90;;;;;;4980037;28;20462;-63
2023/07/02 05:29:54;;;;;;;6.50;5.17;;;16.10;99.90;;;;;;4975862;28;21075;-63
2023/07/02 05:32:21;;;;;;;7.60;5.50;;;16.20;99.90;;;;;;4970398;28;21455;-64
2023/07/02 05:34:48;;;;;;;8.47;6.03;;;16.20;99.90;;;;;;4973199;28;20492;-64
2023/07/02 05:37:15;;;;;;;7.80;5.40;;;16.30;99.90;;;;;;4980090;28;20486;-63
2023/07/02 05:39:43;;;;;;;6.40;5.13;;;16.40;99.90;;;;;;4977542;28;20454;-62
2023/07/02 05:42:10;;;;;;;8.40;5.27;;;16.40;99.90;;;;;;4966350;28;20469;-64
2023/07/02 05:44:37;;;;;;;7.00;5.03;;;16.40;99.90;;;;;;4971254;28;20596;-64
2023/07/02 05:47:04;;;;;;;8.70;5.10;;;16.50;99.90;;;;;;4961475;28;20463;-63
2023/07/02 05:49:32;;;;;;;7.33;4.93;;;16.60;99.90;;;;;;4969649;28;21005;-63
2023/07/02 05:51:59;;;;;;;8.33;6.10;;;16.60;99.90;;;;;;4966612;28;20596;-63
2023/07/02 05:54:26;;;;;;;5.90;5.00;;;16.70;99.90;;;;;;4980038;28;20561;-63
2023/07/02 05:56:54;;;;;;;9.00;6.17;;;16.80;99.90;;;;;;4975202;28;20843;-61
2023/07/02 05:59:21;;;;;;;7.00;6.20;;;16.80;99.90;;;;;;4971554;28;20469;-64
2023/07/02 06:01:48;;;;;;;7.43;6.63;;;16.80;99.90;;;;;;4976275;28;20451;-62
2023/07/02 06:04:15;;;;;;;10.93;6.87;;;16.90;99.90;;;;;;4970868;28;20565;-64
2023/07/02 06:06:43;;;;;;;7.30;5.73;;;16.90;99.90;;;;;;4972533;28;20508;-62
2023/07/02 06:09:10;;;;;;;8.03;6.17;;;17.00;99.90;;;;;;4971481;28;20486;-62
2023/07/02 06:11:37;;;;;;;7.33;6.37;;;17.00;99.90;;;;;;4976068;28;20544;-63
2023/07/02 06:14:06;;;;;;;6.80;6.00;;;17.10;99.90;;;;;;4972206;28;20478;-62
2023/07/02 06:16:33;;;;;;;8.10;6.00;;;17.20;99.90;;;;;;4969580;28;20461;-63
2023/07/02 06:19:00;;;;;;;9.43;6.20;;;17.20;99.90;;;;;;4978658;28;20458;-62
2023/07/02 06:21:29;;;;;;;6.90;5.50;;;17.50;99.90;;;;;;4972565;28;20981;-63
2023/07/02 06:23:57;;;;;;;6.90;5.83;;;17.40;99.90;;;;;;4969999;28;20549;-63
2023/07/02 06:26:24;;;;;;;9.73;6.30;;;17.30;99.90;;;;;;4972633;28;20483;-62
2023/07/02 06:28:51;;;;;;;8.40;5.57;;;17.30;99.90;;;;;;4974825;28;20537;-62
2023/07/02 06:31:20;;;;;;;9.77;6.13;;;17.30;99.90;;;;;;4975100;28;21116;-62
2023/07/02 06:33:47;;;;;;;10.40;6.40;;;17.40;99.90;;;;;;4963876;28;20552;-64
2023/07/02 06:36:14;;;;;;;9.27;6.50;;;17.50;99.90;;;;;;4967929;28;21223;-62
2023/07/02 06:38:41;;;;;;;10.00;6.27;;;17.50;99.90;;;;;;4971336;28;20978;-62
2023/07/02 06:41:09;;;;;;;9.50;5.80;;;17.50;99.90;;;;;;4966545;28;23914;-62
2023/07/02 06:43:36;;;;;;;7.03;6.27;;;17.50;99.90;;;;;;4965867;28;20454;-62
2023/07/02 06:46:03;;;;;;;7.03;6.00;;;17.60;99.90;;;;;;4964377;28;20803;-62
2023/07/02 06:48:32;;;;;;;6.90;6.20;;;17.60;99.90;;;;;;4961679;28;20974;-62
2023/07/02 06:50:59;;;;;;;7.00;6.30;;;17.60;99.90;;;;;;4970636;28;20450;-62
2023/07/02 06:53:26;;;;;;;8.73;6.93;;;17.70;99.90;;;;;;4968323;28;20462;-62
2023/07/02 06:55:54;;;;;;;8.63;6.80;;;17.80;99.90;;;;;;4969959;28;20474;-62
2023/07/02 06:58:20;;;;;;;7.43;5.80;;;17.80;99.90;;;;;;4970041;28;20466;-62
2023/07/02 07:00:47;;;;;;;7.53;6.30;;;17.80;99.90;;;;;;4974907;28;20817;-62
2023/07/02 07:03:15;;;;;;;8.63;6.90;;;18.00;99.90;;;;;;4971036;28;20469;-63
2023/07/02 07:05:43;;;;;;;8.03;6.90;;;18.10;99.90;;;;;;4972678;28;20508;-62
2023/07/02 07:08:10;;;;;;;8.03;7.03;;;18.40;99.90;;;;;;4973853;28;20971;-62
2023/07/02 07:10:37;;;;;;;8.37;6.53;;;18.30;99.90;;;;;;4966391;28;20482;-62
2023/07/02 07:13:05;;;;;;;6.67;5.90;;;18.50;99.90;;;;;;4950606;28;20461;-62
2023/07/02 07:15:34;;;;;;;8.20;6.87;;;18.60;99.90;;;;;;4951911;28;20481;-62
2023/07/02 07:18:02;;;;;;;9.23;7.10;;;18.70;99.90;;;;;;4947633;28;20551;-62
2023/07/02 07:20:29;;;;;;;9.30;7.50;;;18.70;99.90;;;;;;4949559;28;20464;-62
2023/07/02 07:22:58;;;;;;;8.83;7.33;;;18.70;99.90;;;;;;4949628;28;20559;-62
2023/07/02 07:25:25;;;;;;;8.73;7.83;;;18.80;99.90;;;;;;4950227;28;20486;-62
2023/07/02 07:27:53;;;;;;;10.07;8.40;;;18.90;99.90;;;;;;4949288;28;20455;-63
2023/07/02 07:30:22;;;;;;;8.67;7.87;;;19.00;99.90;;;;;;4946684;28;21949;-63
2023/07/02 07:32:50;;;;;;;8.43;7.63;;;19.10;99.90;;;;;;4953526;28;20492;-63
2023/07/02 07:35:18;;;;;;;9.33;8.40;;;19.10;99.90;;;;;;4944030;28;20485;-63
2023/07/02 07:37:45;;;;;;;11.20;9.20;;;19.20;99.90;;;;;;4952558;28;20554;-63
2023/07/02 07:40:15;;;;;;;10.50;8.73;;;19.30;99.90;;;;;;4954841;28;20658;-62
2023/07/02 07:42:43;;;;;;;11.53;9.80;;;19.40;99.90;;;;;;4954600;28;20959;-62
2023/07/02 07:45:11;;;;;;;12.27;10.90;;;19.50;99.90;;;;;;4951740;28;21030;-61
2023/07/02 07:47:39;;;;;;;11.27;9.37;;;19.50;99.90;;;;;;4949869;28;20479;-62
2023/07/02 07:50:10;;;;;;;11.70;10.30;;;19.60;99.90;;;;;;4954928;28;20625;-62
2023/07/02 07:52:38;;;;;;;12.63;10.50;;;19.70;99.90;;;;;;4953279;28;20452;-72
2023/07/02 07:55:06;;;;;;;13.00;10.07;;;19.60;99.90;;;;;;4949783;28;20570;-68
2023/07/02 07:57:35;;;;;;;10.70;9.60;;;19.60;99.90;;;;;;4947723;28;20466;-63
2023/07/02 08:00:05;;;;;;;12.30;10.23;;;19.60;99.90;;;;;;4950102;28;20459;-62
2023/07/02 08:02:32;;;;;;;11.50;10.30;;;19.60;99.90;;;;;;4948438;28;21227;-62
2023/07/02 08:04:59;;;;;;;13.07;11.77;;;19.70;99.90;;;;;;4950789;28;20982;-62
2023/07/02 08:07:26;;;;;;;15.30;11.47;;;19.80;99.90;;;;;;4951000;28;20495;-62
2023/07/02 08:09:53;;;;;;;18.70;12.30;;;19.70;99.90;;;;;;4957907;28;20546;-62
2023/07/02 08:12:20;;;;;;;12.57;11.27;;;19.90;99.90;;;;;;4972583;28;20589;-62
2023/07/02 08:14:50;;;;;;;14.00;12.00;;;20.00;99.90;;;;;;4972737;28;20475;-62
2023/07/02 08:17:17;;;;;;;14.10;11.67;;;20.00;99.90;;;;;;4973920;28;20967;-60
2023/07/02 08:19:44;;;;;;;13.13;11.70;;;20.10;99.90;;;;;;4973699;28;21017;-62
2023/07/02 08:22:11;;;;;;;15.13;12.43;;;20.20;99.90;;;;;;4971633;28;20455;-62
2023/07/02 08:24:38;;;;;;;17.80;12.70;;;20.10;99.90;;;;;;4970753;28;21531;-62
2023/07/02 08:27:06;;;;;;;14.27;12.80;;;20.00;99.90;;;;;;4971565;28;20577;-62
2023/07/02 08:29:33;;;;;;;15.40;12.87;;;20.10;99.90;;;;;;4969200;28;20460;-62
2023/07/02 08:32:02;;;;;;;16.67;13.50;;;20.10;99.90;;;;;;4972252;28;20490;-61
2023/07/02 08:34:29;;;;;;;14.77;13.27;;;20.20;99.90;;;;;;4971510;28;20898;-62
2023/07/02 08:36:56;;;;;;;14.70;12.70;;;20.30;99.90;;;;;;4969444;28;20551;-73
2023/07/02 08:39:23;;;;;;;14.90;12.73;;;20.40;99.90;;;;;;4970734;28;20467;-74
2023/07/02 08:41:50;;;;;;;17.67;13.47;;;20.50;99.90;;;;;;4977139;28;21228;-73
2023/07/02 08:44:22;;;;;;;16.40;12.60;;;20.50;99.90;;;;;;4971066;28;20486;-74
2023/07/02 08:46:50;;;;;;;14.90;13.00;;;20.60;99.90;;;;;;4969981;28;21085;-75
2023/07/02 08:49:19;;;;;;;15.30;12.60;;;20.40;99.90;;;;;;4971263;28;20459;-73
2023/07/02 08:51:47;;;;;;;13.83;12.17;;;20.50;99.90;;;;;;4970528;28;20463;-72
2023/07/02 08:54:14;;;;;;;15.43;12.80;;;20.60;99.90;;;;;;4979390;28;20494;-74
2023/07/02 08:56:41;;;;;;;16.47;13.00;;;20.70;99.90;;;;;;4975052;28;20561;-74
2023/07/02 08:59:09;;;;;;;15.93;12.47;;;20.90;99.90;;;;;;4975005;28;20457;-73
2023/07/02 09:01:46;;;;;;;13.07;11.73;;;21.00;99.90;;;;;;4973056;28;20459;-70
2023/07/02 09:04:17;;;;;;;13.93;12.43;;;20.60;99.90;;;;;;4970298;28;20512;-70
2023/07/02 09:06:48;;;;;;;12.87;11.57;;;20.50;99.90;;;;;;4982328;28;20520;-70
2023/07/02 09:09:15;;;;;;;13.43;11.50;;;20.40;99.90;;;;;;4972445;28;20458;-70
2023/07/02 09:11:49;;;;;;;14.43;11.60;;;20.50;99.90;;;;;;4974374;28;20565;-70
2023/07/02 09:14:28;;;;;;;13.40;12.07;;;20.50;99.90;;;;;;4970102;28;20479;-70
2023/07/02 09:17:06;;;;;;;15.87;12.90;;;20.80;99.90;;;;;;4960481;28;20545;-71
2023/07/02 09:19:33;;;;;;;16.40;14.20;;;21.10;99.90;;;;;;4965715;28;20477;-71
2023/07/02 09:22:02;;;;;;;14.00;12.50;;;21.00;99.90;;;;;;4963297;28;20470;-71
2023/07/02 09:24:30;;;;;;;18.00;12.90;;;21.10;99.90;;;;;;4972625;28;20513;-65
2023/07/02 09:26:59;;;;;;;13.20;11.90;;;21.20;99.90;;;;;;4968009;28;20504;-66
2023/07/02 09:29:28;;;;;;;14.20;12.67;;;20.90;99.90;;;;;;4967742;28;20460;-71
2023/07/02 09:31:57;;;;;;;16.00;12.33;;;21.00;99.90;;;;;;4970840;28;20465;-71
2023/07/02 09:34:29;;;;;;;18.33;13.20;;;21.00;99.90;;;;;;4967913;28;20568;-72
2023/07/02 09:36:56;;;;;;;14.60;13.10;;;21.10;99.90;;;;;;4969432;28;20501;-71
2023/07/02 09:39:29;;;;;;;18.13;13.70;;;21.20;99.90;;;;;;4965846;28;20469;-71
2023/07/02 09:41:57;;;;;;;14.10;12.70;;;21.40;99.90;;;;;;4970772;28;20453;-74
2023/07/02 09:44:28;;;;;;;13.03;11.57;;;21.40;99.90;;;;;;4965266;28;20908;-71
2023/07/02 09:47:01;;;;;;;16.67;13.13;;;21.50;99.90;;;;;;4971817;28;20493;-71
2023/07/02 09:49:32;;;;;;;15.10;13.50;;;21.50;99.90;;;;;;4978537;28;20472;-71
2023/07/02 09:52:00;;;;;;;17.30;15.50;;;21.60;99.90;;;;;;4968928;28;20954;-71
2023/07/02 09:54:28;;;;;;;15.20;13.70;;;21.90;99.90;;;;;;4972810;28;20485;-70
2023/07/02 09:56:56;;;;;;;15.70;13.90;;;22.20;99.90;;;;;;4969493;28;20466;-71
2023/07/02 09:59:23;;;;;;;17.00;14.70;;;22.50;99.90;;;;;;4973093;28;20466;-71
2023/07/02 10:01:50;;;;;;;17.30;14.77;;;22.60;99.90;;;;;;4964539;28;20503;-70
2023/07/02 10:04:19;;;;;;;16.00;14.40;;;22.60;99.90;;;;;;4971984;28;21029;-66
2023/07/02 10:06:48;;;;;;;15.50;13.80;;;23.10;99.90;;;;;;4974092;28;20486;-68
2023/07/02 10:09:15;;;;;;;16.03;13.80;;;23.30;99.90;;;;;;4972115;28;20971;-70
2023/07/02 10:11:44;;;;;;;16.47;14.93;;;23.60;99.90;;;;;;4971515;28;20481;-72
2023/07/02 10:14:11;;;;;;;15.23;13.80;;;23.80;99.90;;;;;;4972313;28;20514;-75
2023/07/02 10:16:50;;;;;;;22.80;14.23;;;23.90;99.90;;;;;;4973925;28;21334;-69
2023/07/02 10:19:17;;;;;;;17.10;14.00;;;24.40;99.90;;;;;;4973311;28;21065;-69
2023/07/02 10:21:46;;;;;;;14.67;12.63;;;24.60;99.10;;;;;;4970449;28;21370;-71
2023/07/02 10:24:15;;;;;;;15.10;13.50;;;24.80;98.00;;;;;;4974150;28;20474;-70
2023/07/02 10:26:55;;;;;;;14.50;12.90;;;24.20;98.00;;;;;;4978287;28;20491;-70
2023/07/02 10:29:23;;;;;;;12.37;11.17;;;24.10;98.40;;;;;;4973571;28;20455;-70
2023/07/02 10:31:52;;;;;;;13.77;12.47;;;24.50;97.30;;;;;;4972701;28;20466;-70
2023/07/02 10:34:30;;;;;;;15.23;13.17;;;24.20;98.20;;;;;;4972671;28;20472;-70
2023/07/02 10:36:58;;;;;;;13.93;12.53;;;24.50;98.20;;;;;;4972034;28;21004;-70
2023/07/02 10:39:25;;;;;;;15.03;13.17;;;24.70;97.80;;;;;;4971320;28;20459;-70
2023/07/02 10:41:52;;;;;;;14.73;13.10;;;24.70;97.60;;;;;;4970150;28;20484;-70
2023/07/02 10:44:20;;;;;;;15.20;13.70;;;25.00;97.30;;;;;;4977865;28;21028;-75
2023/07/02 10:46:48;;;;;;;14.73;13.23;;;25.40;97.00;;;;;;4975647;28;20478;-71
2023/07/02 10:49:18;;;;;;;15.77;14.17;;;25.40;96.20;;;;;;4971516;28;20461;-70
2023/07/02 10:51:45;;;;;;;14.30;12.60;;;25.20;95.60;;;;;;4966308;28;20461;-73
2023/07/02 10:54:12;;;;;;;14.40;13.00;;;25.30;95.50;;;;;;4965083;28;20517;-71
2023/07/02 10:56:43;;;;;;;16.30;14.57;;;25.20;95.90;;;;;;4972195;28;20510;-71
2023/07/02 10:59:10;;;;;;;14.40;13.00;;;25.30;96.40;;;;;;4973972;28;20463;-71
2023/07/02 11:01:38;;;;;;;15.13;13.63;;;25.70;96.40;;;;;;4974418;28;20454;-71
2023/07/02 11:04:05;;;;;;;15.20;13.70;;;25.90;95.50;;;;;;4970929;28;20596;-72
2023/07/02 11:06:33;;;;;;;16.40;13.70;;;25.80;95.50;;;;;;4959763;28;20483;-71
2023/07/02 11:09:01;;;;;;;16.10;14.37;;;25.70;95.40;;;;;;4965711;28;20812;-68
2023/07/02 11:11:28;;;;;;;16.00;14.30;;;25.40;96.10;;;;;;4968454;28;20586;-69
2023/07/02 11:13:56;;;;;;;15.77;14.03;;;25.40;96.70;;;;;;4961877;28;21260;-71
2023/07/02 11:16:25;;;;;;;15.90;13.60;;;25.00;95.60;;;;;;4965227;28;22450;-67
2023/07/02 11:19:08;;;;;;;14.80;13.07;;;24.60;96.00;;;;;;4967796;28;20471;-70
2023/07/02 11:21:35;;;;;;;13.77;12.47;;;24.10;96.60;;;;;;4959500;28;20458;-71
2023/07/02 11:24:03;;;;;;;15.70;13.20;;;24.00;96.20;;;;;;4973802;28;20914;-71
2023/07/02 11:26:36;;;;;;;16.50;14.80;;;23.80;97.30;;;;;;4968376;28;20465;-71
2023/07/02 11:29:03;;;;;;;15.53;13.93;;;24.10;97.30;;;;;;4970754;28;20474;-71
2023/07/02 11:31:31;;;;;;;15.13;13.53;;;24.70;96.70;;;;;;4968563;28;20461;-72
2023/07/02 11:33:59;;;;;;;14.23;12.93;;;25.30;95.90;;;;;;4970207;28;20473;-72
2023/07/02 11:36:26;;;;;;;15.47;13.90;;;25.80;94.40;;;;;;4969324;28;20533;-71
2023/07/02 11:38:56;;;;;;;15.20;13.70;;;25.90;95.10;;;;;;4970103;28;20550;-72
2023/07/02 11:41:23;;;;;;;14.73;13.33;;;26.20;94.50;;;;;;4973446;28;20546;-72
2023/07/02 11:43:50;;;;;;;15.80;14.20;;;26.40;93.90;;;;;;4969898;28;20482;-71
2023/07/02 11:46:17;;;;;;;15.37;13.77;;;26.90;93.20;;;;;;4972511;28;20458;-71
2023/07/02 11:48:44;;;;;;;15.90;14.30;;;26.90;92.10;;;;;;4969930;28;20487;-75
2023/07/02 11:51:12;;;;;;;15.13;13.73;;;27.20;92.00;;;;;;4973055;28;20458;-72
2023/07/02 11:53:39;;;;;;;13.70;12.30;;;27.30;90.80;;;;;;4970300;28;20474;-71
2023/07/02 11:56:06;;;;;;;15.90;13.87;;;27.50;90.30;;;;;;4967607;28;20468;-72
2023/07/02 11:58:34;;;;;;;13.63;12.43;;;27.20;90.10;;;;;;4969235;28;20505;-71
2023/07/02 12:01:01;;;;;;;13.97;12.60;;;27.40;88.50;;;;;;4971100;28;20819;-72
2023/07/02 12:03:28;;;;;;;14.73;13.30;;;26.70;88.50;;;;;;4969427;28;21089;-66
2023/07/02 12:05:55;;;;;;;14.33;12.93;;;26.30;90.30;;;;;;4966803;28;21635;-66
2023/07/02 12:08:23;;;;;;;14.37;13.03;;;26.60;90.70;;;;;;4967798;28;20866;-68
2023/07/02 12:10:50;;;;;;;15.03;13.63;;;26.90;90.00;;;;;;4961491;28;20537;-68
2023/07/02 12:13:17;;;;;;;14.13;12.73;;;27.30;86.80;;;;;;4962698;28;20478;-67
2023/07/02 12:15:45;;;;;;;14.70;13.20;;;27.20;87.70;;;;;;4961427;28;20471;-66
2023/07/02 12:18:12;;;;;;;14.50;13.00;;;27.30;88.20;;;;;;4966665;28;20462;-66
2023/07/02 12:20:40;;;;;;;15.97;14.47;;;27.10;89.20;;;;;;4965210;28;21778;-67
2023/07/02 12:23:07;;;;;;;14.20;12.90;;;27.20;90.30;;;;;;4959053;28;20553;-67
2023/07/02 12:25:35;;;;;;;14.60;13.10;;;27.30;86.30;;;;;;4968080;28;21523;-68
2023/07/02 12:28:03;;;;;;;14.97;13.40;;;26.50;84.90;;;;;;4972115;28;20490;-68
2023/07/02 12:30:30;;;;;;;15.17;13.20;;;26.00;86.20;;;;;;4980062;28;20530;-68
2023/07/02 12:32:57;;;;;;;13.97;12.57;;;26.40;85.50;;;;;;4967555;28;20544;-67
2023/07/02 12:35:25;;;;;;;13.87;12.47;;;26.90;82.50;;;;;;4976230;28;20853;-67
2023/07/02 12:37:53;;;;;;;15.00;13.60;;;26.80;85.20;;;;;;4971086;28;20541;-69
2023/07/02 12:40:21;;;;;;;14.20;12.90;;;27.20;82.40;;;;;;4976104;28;20452;-68
2023/07/02 12:42:50;;;;;;;16.13;14.63;;;27.70;80.60;;;;;;4965722;28;20520;-67